Time;durP1;ratioP1;P1;durP2;ratioP2;P2;SDS_P1;SDS_P2;PMS_P1;PMS_P2;Temp;Humidity;BMP_temperature;BMP_pressure;BME280_temperature;BME280_humidity;BME280_pressure;Samples;Min_cycle;Max_cycle;Signal;HPM_P1;HPM_P2
2023/11/19 00:02:08;;;;;;;3.70;2.83;;;12.20;79.30;;;;;;5038600;28;20442;-49
2023/11/19 00:04:39;;;;;;;2.63;2.43;;;12.40;79.80;;;;;;5041699;28;20205;-52
2023/11/19 00:07:06;;;;;;;3.47;2.70;;;12.60;79.00;;;;;;5040211;28;20947;-50
2023/11/19 00:09:36;;;;;;;4.13;2.70;;;12.60;78.10;;;;;;5043345;28;20462;-50
2023/11/19 00:12:07;;;;;;;3.23;2.93;;;12.70;78.30;;;;;;5036913;28;20447;-52
2023/11/19 00:14:34;;;;;;;3.13;2.87;;;12.50;79.00;;;;;;5036966;28;20451;-54
2023/11/19 00:17:00;;;;;;;2.87;2.63;;;12.50;79.50;;;;;;5036948;28;21172;-48
2023/11/19 00:19:26;;;;;;;3.00;2.70;;;12.40;80.60;;;;;;5041917;28;20512;-50
2023/11/19 00:21:52;;;;;;;5.70;3.00;;;12.70;79.30;;;;;;5043129;28;20233;-50
2023/11/19 00:24:18;;;;;;;2.70;2.50;;;12.70;79.50;;;;;;5038454;28;21142;-52
2023/11/19 00:26:43;;;;;;;3.60;2.90;;;12.60;79.90;;;;;;5039473;28;20198;-51
2023/11/19 00:29:09;;;;;;;2.73;2.53;;;12.30;81.00;;;;;;5037879;28;21006;-53
2023/11/19 00:31:35;;;;;;;3.07;2.50;;;12.30;82.00;;;;;;5038051;28;20573;-49
2023/11/19 00:34:01;;;;;;;4.50;3.17;;;12.40;82.00;;;;;;5037213;28;20435;-49
2023/11/19 00:36:28;;;;;;;2.80;2.57;;;12.30;82.20;;;;;;5033906;28;20627;-50
2023/11/19 00:38:53;;;;;;;4.27;3.33;;;12.30;83.40;;;;;;5042129;28;20454;-52
2023/11/19 00:41:19;;;;;;;4.07;3.00;;;12.30;82.90;;;;;;5042497;28;20506;-49
2023/11/19 00:43:44;;;;;;;2.80;2.60;;;12.50;82.70;;;;;;5040869;28;20189;-52
2023/11/19 00:46:16;;;;;;;3.37;3.07;;;12.50;82.00;;;;;;5043105;28;20176;-53
2023/11/19 00:48:42;;;;;;;3.03;2.80;;;12.60;82.40;;;;;;5041725;28;20196;-52
2023/11/19 00:51:07;;;;;;;2.63;2.43;;;12.80;81.40;;;;;;5043579;28;20794;-48
2023/11/19 00:53:33;;;;;;;2.87;2.67;;;12.80;81.30;;;;;;5046338;28;20259;-51
2023/11/19 00:55:59;;;;;;;2.80;2.57;;;12.80;81.30;;;;;;5040361;28;21094;-50
2023/11/19 00:58:25;;;;;;;4.87;2.63;;;12.80;81.90;;;;;;5045063;28;20815;-49
2023/11/19 01:00:51;;;;;;;2.73;2.53;;;13.00;81.60;;;;;;5044607;28;20438;-49
2023/11/19 01:03:16;;;;;;;2.17;2.00;;;13.10;80.30;;;;;;5043903;28;20526;-49
2023/11/19 01:05:43;;;;;;;4.50;2.57;;;13.30;79.80;;;;;;5035965;28;20195;-49
2023/11/19 01:08:09;;;;;;;2.13;1.93;;;13.30;79.30;;;;;;5041709;28;20541;-54
2023/11/19 01:10:36;;;;;;;2.30;2.10;;;13.20;80.40;;;;;;5041050;28;20530;-49
2023/11/19 01:13:05;;;;;;;2.50;2.30;;;13.20;80.10;;;;;;5043194;28;20211;-53
2023/11/19 01:15:31;;;;;;;2.30;2.10;;;13.40;80.20;;;;;;5039983;28;21226;-50
2023/11/19 01:17:57;;;;;;;2.23;2.00;;;13.30;80.30;;;;;;5036769;28;20819;-48
2023/11/19 01:20:23;;;;;;;2.53;2.20;;;13.30;80.30;;;;;;5033776;28;20459;-49
2023/11/19 01:22:49;;;;;;;3.20;2.00;;;13.30;81.00;;;;;;5035795;28;20185;-49
2023/11/19 01:25:14;;;;;;;2.50;2.30;;;13.40;80.80;;;;;;5036155;28;20478;-50
2023/11/19 01:27:40;;;;;;;2.00;1.90;;;13.40;80.70;;;;;;5041112;28;20561;-52
2023/11/19 01:30:09;;;;;;;6.10;2.30;;;13.40;81.10;;;;;;5041502;28;20201;-53
2023/11/19 01:32:36;;;;;;;2.27;2.07;;;13.60;80.20;;;;;;5036208;28;20675;-52
2023/11/19 01:35:02;;;;;;;4.97;2.33;;;13.90;79.00;;;;;;5038383;28;20432;-54
2023/11/19 01:37:28;;;;;;;2.30;1.83;;;13.90;78.40;;;;;;5043158;28;20581;-51
2023/11/19 01:39:53;;;;;;;2.67;2.17;;;14.00;78.30;;;;;;5042515;28;20462;-52
2023/11/19 01:42:19;;;;;;;1.77;1.67;;;14.00;78.10;;;;;;5040745;28;20624;-49
2023/11/19 01:44:58;;;;;;;2.83;1.80;;;13.90;78.10;;;;;;5042431;28;20199;-52
2023/11/19 01:47:25;;;;;;;2.23;1.90;;;13.90;78.60;;;;;;5035124;28;20577;-49
2023/11/19 01:49:51;;;;;;;1.83;1.73;;;14.00;78.20;;;;;;5038263;28;21545;-49
2023/11/19 01:52:17;;;;;;;2.40;2.00;;;14.10;78.00;;;;;;5037816;28;20436;-49
2023/11/19 01:54:43;;;;;;;4.07;1.83;;;14.00;78.60;;;;;;5038300;28;20523;-51
2023/11/19 01:57:09;;;;;;;2.90;2.70;;;13.90;78.80;;;;;;5039030;28;20550;-53
2023/11/19 01:59:35;;;;;;;2.13;1.90;;;14.00;79.30;;;;;;5039306;28;20688;-52
2023/11/19 02:02:00;;;;;;;2.40;1.97;;;14.00;78.80;;;;;;5038923;28;20271;-49
2023/11/19 02:04:26;;;;;;;2.30;2.10;;;14.10;78.80;;;;;;5042549;28;20191;-49
2023/11/19 02:06:56;;;;;;;1.80;1.70;;;14.10;78.50;;;;;;5038474;28;20196;-49
2023/11/19 02:09:21;;;;;;;1.90;1.80;;;14.20;77.90;;;;;;5035810;28;20212;-49
2023/11/19 02:11:50;;;;;;;2.50;1.87;;;14.40;77.50;;;;;;5035002;28;20436;-49
2023/11/19 02:14:16;;;;;;;2.00;1.90;;;14.50;76.90;;;;;;5036738;28;20192;-48
2023/11/19 02:16:42;;;;;;;1.80;1.70;;;14.60;76.50;;;;;;5035004;28;20477;-51
2023/11/19 02:19:09;;;;;;;2.50;2.10;;;14.70;76.20;;;;;;5042562;28;20980;-48
2023/11/19 02:21:35;;;;;;;2.07;1.87;;;14.70;76.00;;;;;;5039610;28;20189;-49
2023/11/19 02:24:06;;;;;;;1.97;1.87;;;14.70;76.20;;;;;;5038449;28;20431;-52
2023/11/19 02:27:02;;;;;;;2.60;1.90;;;14.70;76.40;;;;;;5035406;28;20201;-48
2023/11/19 02:29:27;;;;;;;1.97;1.87;;;14.80;75.90;;;;;;5032482;28;20467;-51
2023/11/19 02:31:55;;;;;;;2.07;1.90;;;14.80;75.40;;;;;;5041012;28;20513;-54
2023/11/19 02:34:21;;;;;;;1.83;1.73;;;14.80;75.50;;;;;;5042362;28;20561;-51
2023/11/19 02:36:47;;;;;;;2.27;2.07;;;14.70;75.80;;;;;;5041467;28;21009;-54
2023/11/19 02:39:13;;;;;;;1.40;1.30;;;14.80;75.90;;;;;;5045993;28;20462;-53
2023/11/19 02:41:39;;;;;;;1.60;1.50;;;14.80;75.70;;;;;;5045668;28;20184;-51
2023/11/19 02:44:06;;;;;;;1.80;1.70;;;14.80;75.80;;;;;;5036546;28;20436;-48
2023/11/19 02:46:31;;;;;;;1.60;1.50;;;14.90;75.60;;;;;;5042321;28;20439;-50
2023/11/19 02:48:57;;;;;;;2.10;2.00;;;14.90;75.20;;;;;;5037065;28;21039;-53
2023/11/19 02:51:23;;;;;;;1.70;1.60;;;15.00;75.00;;;;;;5036481;28;20734;-55
2023/11/19 02:53:48;;;;;;;1.73;1.63;;;15.00;74.80;;;;;;5038762;28;20185;-49
2023/11/19 02:56:37;;;;;;;2.00;1.77;;;15.00;74.70;;;;;;5035652;28;20217;-54
2023/11/19 02:59:07;;;;;;;1.80;1.60;;;15.00;74.70;;;;;;5037382;28;20263;-50
2023/11/19 03:01:35;;;;;;;1.60;1.50;;;15.00;74.90;;;;;;5035529;28;21128;-50
2023/11/19 03:04:02;;;;;;;1.77;1.60;;;15.10;74.90;;;;;;5036448;28;20431;-48
2023/11/19 03:06:28;;;;;;;1.70;1.60;;;15.10;74.70;;;;;;5047572;28;20980;-54
2023/11/19 03:08:55;;;;;;;1.80;1.43;;;14.90;75.40;;;;;;5040771;28;20466;-50
2023/11/19 03:11:20;;;;;;;1.90;1.60;;;14.90;75.70;;;;;;5034163;28;20445;-50
2023/11/19 03:13:46;;;;;;;2.27;1.73;;;15.00;75.60;;;;;;5034528;28;20969;-49
2023/11/19 03:16:12;;;;;;;2.10;1.30;;;15.00;75.30;;;;;;5040946;28;20209;-49
2023/11/19 03:18:39;;;;;;;2.93;1.37;;;15.10;75.40;;;;;;5047298;28;20981;-51
2023/11/19 03:21:06;;;;;;;1.70;1.60;;;15.10;75.60;;;;;;5044006;28;20566;-49
2023/11/19 03:23:31;;;;;;;1.30;1.20;;;15.10;75.30;;;;;;5041416;28;20941;-55
2023/11/19 03:25:57;;;;;;;2.03;1.50;;;15.10;75.60;;;;;;5040234;28;20533;-49
2023/11/19 03:28:22;;;;;;;1.93;1.40;;;15.10;75.80;;;;;;5046098;28;20188;-50
2023/11/19 03:30:48;;;;;;;1.87;1.53;;;15.10;76.00;;;;;;5039090;28;20280;-51
2023/11/19 03:33:14;;;;;;;3.33;2.33;;;15.10;76.00;;;;;;5038390;28;20271;-54
2023/11/19 03:35:41;;;;;;;5.20;3.50;;;15.00;76.40;;;;;;5038287;28;20406;-55
2023/11/19 03:38:06;;;;;;;3.20;2.50;;;14.90;76.80;;;;;;5041389;28;20484;-52
2023/11/19 03:40:32;;;;;;;3.73;2.10;;;14.90;77.60;;;;;;5041876;28;20522;-52
2023/11/19 03:42:58;;;;;;;2.83;2.03;;;14.80;77.90;;;;;;5043845;28;20200;-49
2023/11/19 03:45:24;;;;;;;1.80;1.60;;;14.80;78.40;;;;;;5040078;28;20196;-52
2023/11/19 03:47:50;;;;;;;1.80;1.70;;;14.80;78.70;;;;;;5042857;28;20462;-51
2023/11/19 03:50:16;;;;;;;3.10;1.47;;;14.80;78.50;;;;;;5035478;28;20994;-54
2023/11/19 03:52:42;;;;;;;2.23;1.50;;;14.80;78.40;;;;;;5040628;28;20547;-51
2023/11/19 03:55:08;;;;;;;1.87;1.50;;;14.80;78.50;;;;;;5034423;28;21087;-49
2023/11/19 03:57:34;;;;;;;1.60;1.50;;;14.50;79.60;;;;;;5042664;28;20230;-51
2023/11/19 04:00:02;;;;;;;2.63;1.57;;;14.50;80.70;;;;;;5047111;28;20455;-52
2023/11/19 04:02:27;;;;;;;2.17;2.00;;;14.40;80.80;;;;;;5039751;28;20479;-51
2023/11/19 04:04:54;;;;;;;2.10;1.90;;;14.40;81.00;;;;;;5045671;28;20487;-54
2023/11/19 04:07:20;;;;;;;3.80;2.70;;;14.30;81.90;;;;;;5040976;28;20220;-48
2023/11/19 04:09:46;;;;;;;2.33;2.23;;;14.30;81.70;;;;;;5037152;28;20467;-48
2023/11/19 04:12:12;;;;;;;3.20;2.27;;;14.20;82.30;;;;;;5040284;28;20505;-49
2023/11/19 04:14:37;;;;;;;2.63;2.17;;;14.10;84.10;;;;;;5040092;28;20446;-49
2023/11/19 04:17:03;;;;;;;1.83;1.70;;;14.30;82.80;;;;;;5036179;28;20286;-53
2023/11/19 04:19:29;;;;;;;2.03;1.83;;;14.30;82.30;;;;;;5039921;28;20230;-50
2023/11/19 04:21:54;;;;;;;2.10;1.97;;;14.30;82.50;;;;;;5037796;28;20645;-53
2023/11/19 04:24:20;;;;;;;2.03;1.93;;;14.40;82.70;;;;;;5041589;28;22186;-49
2023/11/19 04:26:46;;;;;;;1.77;1.60;;;14.40;83.00;;;;;;5041554;28;20200;-51
2023/11/19 04:29:13;;;;;;;1.63;0.90;;;14.50;82.70;;;;;;5039402;28;20439;-51
2023/11/19 04:31:39;;;;;;;6.43;1.30;;;14.60;82.60;;;;;;5044327;28;20580;-53
2023/11/19 04:34:06;;;;;;;1.00;0.90;;;14.60;82.90;;;;;;5046726;28;20974;-49
2023/11/19 04:36:32;;;;;;;1.20;1.13;;;14.50;83.50;;;;;;5045539;28;20557;-51
2023/11/19 04:38:59;;;;;;;1.90;1.00;;;14.60;83.20;;;;;;5047466;28;20455;-53
2023/11/19 04:41:25;;;;;;;1.20;1.00;;;14.50;84.30;;;;;;5039351;28;20570;-52
2023/11/19 04:43:50;;;;;;;1.00;0.90;;;14.40;84.50;;;;;;5045968;28;20446;-50
2023/11/19 04:46:16;;;;;;;1.10;1.00;;;14.40;85.10;;;;;;5039752;28;20446;-53
2023/11/19 04:48:42;;;;;;;1.47;0.90;;;14.70;84.20;;;;;;5042148;28;20274;-48
2023/11/19 04:51:09;;;;;;;2.50;1.07;;;14.80;83.20;;;;;;5037794;28;20193;-54
2023/11/19 04:53:35;;;;;;;0.97;0.97;;;15.00;82.20;;;;;;5048647;28;20177;-53
2023/11/19 04:56:00;;;;;;;0.87;0.87;;;15.10;81.60;;;;;;5044297;28;20473;-49
2023/11/19 04:58:29;;;;;;;1.10;1.00;;;15.20;80.80;;;;;;5047615;28;20211;-51
2023/11/19 05:00:54;;;;;;;0.97;0.73;;;15.30;80.60;;;;;;5043985;28;20557;-54
2023/11/19 05:03:20;;;;;;;2.40;0.90;;;15.30;80.40;;;;;;5032845;28;20440;-50
2023/11/19 05:05:45;;;;;;;1.47;0.73;;;15.40;80.20;;;;;;5042041;28;20195;-51
2023/11/19 05:08:11;;;;;;;1.10;0.80;;;15.40;79.70;;;;;;5034558;28;20255;-52
2023/11/19 05:10:37;;;;;;;0.97;0.80;;;15.40;79.80;;;;;;5036310;28;20212;-53
2023/11/19 05:13:02;;;;;;;0.70;0.70;;;15.40;79.20;;;;;;5032593;28;20522;-51
2023/11/19 05:15:28;;;;;;;0.93;0.70;;;15.40;79.80;;;;;;5037874;28;20251;-51
2023/11/19 05:17:53;;;;;;;3.20;0.60;;;15.40;80.00;;;;;;5028986;28;20185;-55
2023/11/19 05:20:19;;;;;;;0.73;0.73;;;15.20;81.30;;;;;;5032966;28;22299;-53
2023/11/19 05:22:45;;;;;;;0.80;0.70;;;15.00;82.20;;;;;;5035319;28;20743;-50
2023/11/19 05:25:11;;;;;;;0.80;0.60;;;15.10;82.30;;;;;;5039217;28;20196;-53
2023/11/19 05:27:37;;;;;;;0.93;0.67;;;15.30;81.80;;;;;;5038656;28;21830;-48
2023/11/19 05:30:06;;;;;;;0.83;0.60;;;15.30;81.10;;;;;;5040121;28;20234;-56
2023/11/19 05:32:32;;;;;;;0.67;0.60;;;15.10;82.50;;;;;;5043329;28;20496;-53
2023/11/19 05:34:57;;;;;;;0.50;0.50;;;15.20;82.40;;;;;;5037573;28;20436;-53
2023/11/19 05:37:23;;;;;;;0.60;0.53;;;15.30;82.60;;;;;;5035357;28;20357;-52
2023/11/19 05:39:49;;;;;;;0.80;0.50;;;15.20;82.40;;;;;;5037843;28;20297;-53
2023/11/19 05:42:14;;;;;;;0.57;0.57;;;15.00;83.60;;;;;;5039225;28;20188;-55
2023/11/19 05:44:40;;;;;;;0.60;0.60;;;15.20;83.50;;;;;;5037545;28;20458;-53
2023/11/19 05:47:06;;;;;;;0.77;0.60;;;15.20;83.00;;;;;;5035127;28;20829;-54
2023/11/19 05:49:32;;;;;;;0.50;0.50;;;15.30;82.30;;;;;;5037530;28;20595;-51
2023/11/19 05:51:58;;;;;;;0.50;0.50;;;15.40;82.10;;;;;;5032452;28;20459;-51
2023/11/19 05:54:24;;;;;;;0.47;0.47;;;15.30;82.50;;;;;;5039546;28;20438;-52
2023/11/19 05:56:49;;;;;;;0.50;0.50;;;15.40;82.10;;;;;;5036626;28;20358;-53
2023/11/19 05:59:17;;;;;;;0.77;0.50;;;15.50;81.70;;;;;;5046999;28;20205;-50
2023/11/19 06:01:43;;;;;;;0.70;0.70;;;15.70;80.80;;;;;;5039255;28;20249;-54
2023/11/19 06:04:09;;;;;;;1.63;0.60;;;15.60;80.70;;;;;;5038029;28;20496;-52
2023/11/19 06:06:35;;;;;;;0.50;0.50;;;15.70;80.50;;;;;;5038501;28;20443;-53
2023/11/19 06:09:02;;;;;;;0.60;0.60;;;15.70;80.20;;;;;;5037689;28;20855;-49
2023/11/19 06:11:27;;;;;;;0.43;0.43;;;15.80;80.50;;;;;;5042310;28;20820;-52
2023/11/19 06:13:53;;;;;;;0.60;0.60;;;15.80;80.00;;;;;;5044121;28;20459;-51
2023/11/19 06:16:19;;;;;;;0.70;0.60;;;15.80;79.70;;;;;;5032778;28;20214;-54
2023/11/19 06:18:45;;;;;;;0.83;0.60;;;15.80;79.70;;;;;;5041360;28;20215;-52
2023/11/19 06:21:11;;;;;;;0.70;0.60;;;15.80;79.70;;;;;;5036034;28;20189;-52
2023/11/19 06:23:37;;;;;;;0.93;0.80;;;15.80;80.00;;;;;;5037306;28;20726;-53
2023/11/19 06:26:03;;;;;;;0.70;0.70;;;15.80;79.70;;;;;;5037434;28;20672;-56
2023/11/19 06:28:28;;;;;;;0.50;0.50;;;15.90;79.60;;;;;;5034615;28;20204;-52
2023/11/19 06:30:54;;;;;;;0.70;0.60;;;16.10;78.70;;;;;;5035471;28;20208;-52
2023/11/19 06:33:20;;;;;;;0.77;0.70;;;16.00;78.60;;;;;;5044315;28;20192;-51
2023/11/19 06:35:45;;;;;;;0.70;0.70;;;15.80;79.40;;;;;;5041887;28;20221;-50
2023/11/19 06:38:11;;;;;;;0.70;0.60;;;15.80;79.60;;;;;;5033886;28;20192;-49
2023/11/19 06:40:36;;;;;;;0.50;0.50;;;15.90;79.70;;;;;;5041133;28;20243;-56
2023/11/19 06:43:03;;;;;;;0.60;0.60;;;15.80;79.70;;;;;;5039007;28;20239;-54
2023/11/19 06:45:29;;;;;;;0.77;0.60;;;15.70;80.20;;;;;;5032800;28;21065;-51
2023/11/19 06:47:54;;;;;;;1.23;0.60;;;15.60;81.20;;;;;;5037358;28;20466;-55
2023/11/19 06:50:20;;;;;;;2.53;0.60;;;15.50;82.20;;;;;;5037825;28;20224;-54
2023/11/19 06:52:46;;;;;;;0.60;0.60;;;15.40;82.60;;;;;;5047395;28;20684;-50
2023/11/19 06:55:12;;;;;;;0.80;0.50;;;15.50;82.40;;;;;;5048313;28;20668;-49
2023/11/19 06:57:37;;;;;;;0.77;0.70;;;15.40;82.80;;;;;;5044846;28;20449;-51
2023/11/19 07:00:05;;;;;;;2.93;0.60;;;15.40;83.80;;;;;;5045761;28;20298;-53
2023/11/19 07:02:31;;;;;;;0.70;0.70;;;15.20;84.60;;;;;;5035988;28;20184;-51
2023/11/19 07:04:57;;;;;;;0.60;0.60;;;15.10;85.30;;;;;;5033231;28;20451;-54
2023/11/19 07:07:22;;;;;;;0.63;0.63;;;15.10;86.40;;;;;;5036093;28;20772;-53
2023/11/19 07:09:48;;;;;;;0.60;0.60;;;15.20;85.90;;;;;;5034664;28;20355;-52
2023/11/19 07:12:14;;;;;;;0.70;0.70;;;15.10;86.40;;;;;;5046983;28;20185;-50
2023/11/19 07:14:41;;;;;;;5.10;0.70;;;15.40;85.10;;;;;;5045728;28;20187;-55
2023/11/19 07:17:08;;;;;;;0.90;0.80;;;15.50;83.90;;;;;;5043675;28;20243;-49
2023/11/19 07:19:36;;;;;;;0.60;0.60;;;15.30;84.90;;;;;;5038414;28;20475;-48
2023/11/19 07:22:02;;;;;;;0.90;0.60;;;15.40;84.70;;;;;;5042077;28;20524;-52
2023/11/19 07:24:28;;;;;;;0.50;0.50;;;15.40;84.30;;;;;;5034798;28;20937;-48
2023/11/19 07:26:54;;;;;;;0.50;0.50;;;15.50;84.20;;;;;;5043154;28;21120;-49
2023/11/19 07:29:21;;;;;;;0.77;0.70;;;15.40;85.00;;;;;;5036331;28;20454;-49
2023/11/19 07:31:48;;;;;;;0.70;0.60;;;15.60;83.80;;;;;;5028925;28;20184;-51
2023/11/19 07:34:14;;;;;;;0.73;0.73;;;15.60;83.00;;;;;;5036484;28;20454;-52
2023/11/19 07:36:39;;;;;;;1.30;0.60;;;15.50;84.00;;;;;;5038672;28;20475;-56
2023/11/19 07:39:05;;;;;;;0.80;0.70;;;15.70;83.00;;;;;;5038224;28;20212;-51
2023/11/19 07:41:34;;;;;;;0.90;0.60;;;15.70;82.60;;;;;;5043439;28;20219;-50
2023/11/19 07:44:00;;;;;;;0.67;0.67;;;15.80;82.40;;;;;;5046521;28;20193;-49
2023/11/19 07:46:26;;;;;;;0.70;0.70;;;15.90;81.70;;;;;;5040835;28;20434;-49
2023/11/19 07:48:52;;;;;;;0.50;0.50;;;15.70;82.00;;;;;;5042104;28;20481;-48
2023/11/19 07:51:18;;;;;;;1.10;0.63;;;15.60;82.80;;;;;;5048912;28;20497;-49
2023/11/19 07:53:44;;;;;;;1.93;0.87;;;15.70;82.80;;;;;;5050023;28;20763;-48
2023/11/19 07:56:10;;;;;;;1.03;0.93;;;15.70;83.20;;;;;;5042249;28;20803;-55
2023/11/19 07:58:36;;;;;;;1.53;1.00;;;16.00;81.80;;;;;;5048198;28;20266;-56
2023/11/19 08:01:02;;;;;;;0.70;0.70;;;16.10;81.20;;;;;;5047874;28;20477;-49
2023/11/19 08:03:29;;;;;;;0.70;0.70;;;16.00;80.90;;;;;;5046623;28;20977;-54
2023/11/19 08:05:58;;;;;;;1.40;1.30;;;16.00;80.60;;;;;;5045220;28;20430;-52
2023/11/19 08:08:26;;;;;;;2.43;1.30;;;15.90;81.90;;;;;;5044196;28;20547;-57
2023/11/19 08:10:52;;;;;;;1.20;1.00;;;15.90;82.40;;;;;;5044353;28;20766;-48
2023/11/19 08:13:19;;;;;;;1.20;1.10;;;15.90;81.90;;;;;;5049188;28;20438;-51
2023/11/19 08:15:46;;;;;;;4.87;4.47;;;15.80;81.90;;;;;;5047736;28;20470;-53
2023/11/19 08:18:11;;;;;;;2.30;2.10;;;16.10;81.80;;;;;;5048426;28;20423;-55
2023/11/19 08:20:37;;;;;;;1.43;0.93;;;16.20;80.90;;;;;;5041527;28;20446;-51
2023/11/19 08:23:06;;;;;;;1.40;0.90;;;16.20;80.50;;;;;;5048417;28;20185;-54
2023/11/19 08:25:33;;;;;;;2.70;1.43;;;16.10;80.70;;;;;;5037047;28;20230;-55
2023/11/19 08:27:59;;;;;;;2.40;1.43;;;15.90;82.00;;;;;;5044587;28;20439;-49
2023/11/19 08:30:25;;;;;;;1.83;1.10;;;16.00;82.20;;;;;;5048559;28;20518;-52
2023/11/19 08:32:50;;;;;;;2.17;0.93;;;15.90;82.10;;;;;;5044647;28;20562;-54
2023/11/19 08:35:16;;;;;;;0.70;0.70;;;16.10;81.80;;;;;;5044646;28;20197;-49
2023/11/19 08:37:42;;;;;;;0.80;0.80;;;15.90;82.10;;;;;;5046664;28;20193;-54
2023/11/19 08:40:08;;;;;;;0.70;0.70;;;16.00;83.00;;;;;;5046690;28;20215;-52
2023/11/19 08:42:33;;;;;;;0.97;0.80;;;16.10;82.40;;;;;;5048470;28;20415;-53
2023/11/19 08:44:59;;;;;;;2.03;0.60;;;16.20;81.60;;;;;;5038067;28;20452;-50
2023/11/19 08:47:24;;;;;;;0.60;0.60;;;16.30;81.30;;;;;;5047115;28;20306;-49
2023/11/19 08:49:53;;;;;;;1.20;0.70;;;16.20;80.80;;;;;;5048637;28;20616;-52
2023/11/19 08:52:19;;;;;;;0.77;0.77;;;16.30;81.50;;;;;;5048089;28;20265;-50
2023/11/19 08:54:44;;;;;;;1.47;0.80;;;16.40;80.60;;;;;;5045087;28;20510;-52
2023/11/19 08:57:10;;;;;;;0.80;0.80;;;16.40;80.40;;;;;;5044795;28;20780;-54
2023/11/19 08:59:37;;;;;;;0.63;0.63;;;16.50;80.60;;;;;;5040761;28;20365;-50
2023/11/19 09:02:04;;;;;;;0.90;0.90;;;16.60;79.50;;;;;;5041487;28;20342;-55
2023/11/19 09:04:29;;;;;;;3.47;0.77;;;16.80;78.90;;;;;;5042923;28;20543;-49
2023/11/19 09:06:57;;;;;;;1.17;0.77;;;16.80;78.50;;;;;;5047620;28;20506;-53
2023/11/19 09:09:22;;;;;;;1.10;0.80;;;17.00;78.00;;;;;;5048251;28;20193;-50
2023/11/19 09:11:48;;;;;;;2.30;0.73;;;17.00;77.90;;;;;;5048176;28;20423;-56
2023/11/19 09:14:13;;;;;;;0.90;0.80;;;17.10;78.30;;;;;;5048569;28;20193;-50
2023/11/19 09:16:39;;;;;;;1.53;0.80;;;17.20;77.50;;;;;;5046324;28;20715;-54
2023/11/19 09:19:05;;;;;;;0.70;0.70;;;17.00;77.50;;;;;;5046080;28;20754;-50
2023/11/19 09:21:30;;;;;;;3.93;0.73;;;17.20;78.20;;;;;;5048069;28;20259;-55
2023/11/19 09:23:56;;;;;;;1.33;1.10;;;17.40;77.00;;;;;;5048702;28;20191;-54
2023/11/19 09:26:21;;;;;;;1.00;0.90;;;17.60;75.70;;;;;;5044126;28;20192;-51
2023/11/19 09:28:47;;;;;;;1.00;0.80;;;17.80;74.60;;;;;;5046635;28;20704;-49
2023/11/19 09:31:17;;;;;;;0.80;0.80;;;17.90;73.60;;;;;;5047079;28;20727;-55
2023/11/19 09:33:43;;;;;;;1.20;0.90;;;18.00;73.10;;;;;;5045642;28;20195;-54
2023/11/19 09:36:10;;;;;;;0.90;0.90;;;18.10;72.60;;;;;;5047012;28;20473;-54
2023/11/19 09:38:39;;;;;;;0.90;0.73;;;18.10;72.40;;;;;;5047318;28;21111;-50
2023/11/19 09:41:09;;;;;;;1.63;0.90;;;18.10;72.10;;;;;;5046883;28;21144;-53
2023/11/19 09:43:38;;;;;;;0.80;0.80;;;18.20;71.80;;;;;;5048454;28;20427;-55
2023/11/19 09:46:13;;;;;;;1.37;0.83;;;18.30;71.50;;;;;;5033628;28;20531;-57
2023/11/19 09:48:42;;;;;;;2.00;1.10;;;18.30;71.50;;;;;;5029280;28;20470;-54
2023/11/19 09:51:09;;;;;;;1.63;1.50;;;18.30;71.60;;;;;;5028465;28;20451;-51
2023/11/19 09:53:36;;;;;;;1.33;1.20;;;18.30;71.20;;;;;;5030468;28;20447;-53
2023/11/19 09:56:05;;;;;;;1.07;0.97;;;18.30;71.50;;;;;;5039307;28;20586;-55
2023/11/19 09:58:34;;;;;;;1.30;0.83;;;18.40;71.70;;;;;;5033601;28;20471;-53
2023/11/19 10:01:02;;;;;;;2.00;1.40;;;18.50;71.60;;;;;;5043946;28;20439;-50
2023/11/19 10:03:33;;;;;;;1.20;1.10;;;18.50;71.10;;;;;;5035706;28;20934;-55
2023/11/19 10:06:01;;;;;;;1.50;1.20;;;18.70;70.90;;;;;;5030360;28;20465;-55
2023/11/19 10:08:26;;;;;;;1.40;1.30;;;18.70;70.60;;;;;;5034168;28;20536;-55
2023/11/19 10:10:52;;;;;;;1.70;1.30;;;18.80;70.90;;;;;;5028197;28;20527;-55
2023/11/19 10:13:18;;;;;;;2.17;0.97;;;18.80;70.60;;;;;;5039377;28;20228;-55
2023/11/19 10:15:44;;;;;;;1.60;1.10;;;18.90;70.20;;;;;;5037705;28;20216;-55
2023/11/19 10:18:10;;;;;;;1.10;0.93;;;19.00;70.10;;;;;;5037471;28;20201;-57
2023/11/19 10:20:41;;;;;;;1.00;1.00;;;19.00;70.40;;;;;;5039413;28;20457;-55
2023/11/19 10:23:06;;;;;;;1.43;1.27;;;19.00;70.50;;;;;;5048718;28;20271;-49
2023/11/19 10:25:33;;;;;;;1.13;0.87;;;18.90;72.40;;;;;;5036647;28;21002;-50
2023/11/19 10:28:00;;;;;;;1.20;1.00;;;19.10;70.90;;;;;;5044133;28;20192;-53
2023/11/19 10:30:30;;;;;;;2.97;1.10;;;19.20;70.80;;;;;;5044619;28;20462;-51
2023/11/19 10:33:08;;;;;;;0.73;0.70;;;19.30;71.30;;;;;;5040530;28;20438;-55
2023/11/19 10:35:51;;;;;;;0.93;0.93;;;19.60;70.80;;;;;;5047047;28;20484;-55
2023/11/19 10:38:16;;;;;;;0.90;0.90;;;19.80;69.40;;;;;;5036739;28;20431;-54
2023/11/19 10:40:42;;;;;;;1.50;1.10;;;19.90;69.20;;;;;;5041831;28;20472;-55
2023/11/19 10:43:08;;;;;;;0.97;0.97;;;20.00;68.40;;;;;;5036009;28;20176;-51
2023/11/19 10:45:35;;;;;;;1.47;0.80;;;20.10;67.20;;;;;;5040893;28;20200;-57
2023/11/19 10:48:04;;;;;;;0.80;0.80;;;20.00;67.10;;;;;;5040114;28;20537;-54
2023/11/19 10:50:30;;;;;;;1.00;0.90;;;20.00;67.50;;;;;;5038300;28;20969;-51
2023/11/19 10:52:59;;;;;;;1.47;0.80;;;20.00;67.50;;;;;;5038177;28;20446;-54
2023/11/19 10:55:29;;;;;;;0.80;0.80;;;19.90;67.20;;;;;;5030879;28;20205;-50
2023/11/19 10:58:03;;;;;;;1.17;0.90;;;19.80;66.50;;;;;;5038909;28;20443;-51
2023/11/19 11:00:54;;;;;;;0.80;0.80;;;19.80;65.60;;;;;;5034825;28;20455;-52
2023/11/19 11:03:25;;;;;;;1.43;0.70;;;19.90;65.40;;;;;;5039830;28;20476;-54
2023/11/19 11:05:52;;;;;;;3.23;1.10;;;19.90;66.40;;;;;;5047570;28;20565;-52
2023/11/19 11:08:18;;;;;;;0.80;0.80;;;20.00;65.30;;;;;;5044243;28;20508;-52
2023/11/19 11:10:53;;;;;;;0.70;0.70;;;20.00;64.90;;;;;;5040472;28;20436;-53
2023/11/19 11:13:19;;;;;;;0.80;0.80;;;20.10;65.20;;;;;;5044484;28;20434;-51
2023/11/19 11:15:46;;;;;;;0.93;0.90;;;20.10;64.80;;;;;;5040394;28;20472;-53
2023/11/19 11:18:13;;;;;;;1.07;1.03;;;20.00;64.10;;;;;;5036167;28;20189;-52
2023/11/19 11:20:39;;;;;;;4.60;1.50;;;20.10;64.30;;;;;;5039247;28;20459;-53
2023/11/19 11:23:11;;;;;;;1.10;0.80;;;20.10;64.00;;;;;;5048340;28;20498;-50
2023/11/19 11:26:00;;;;;;;1.13;0.80;;;20.00;62.60;;;;;;5042605;28;20947;-51
2023/11/19 11:28:56;;;;;;;0.93;0.90;;;19.90;62.80;;;;;;5042234;28;20454;-52
2023/11/19 11:31:53;;;;;;;2.30;1.03;;;19.60;62.00;;;;;;5043502;28;20428;-56
2023/11/19 11:34:25;;;;;;;0.87;0.80;;;19.50;61.60;;;;;;5042348;28;20560;-50
2023/11/19 11:37:08;;;;;;;1.57;0.90;;;19.30;62.20;;;;;;5038177;28;20994;-53
2023/11/19 11:39:33;;;;;;;0.73;0.73;;;19.30;61.10;;;;;;5042827;28;20474;-50
2023/11/19 11:42:17;;;;;;;1.73;1.00;;;19.30;60.80;;;;;;5038243;28;20524;-51
2023/11/19 11:45:04;;;;;;;1.67;1.07;;;19.20;59.70;;;;;;5045271;28;20187;-55
2023/11/19 11:47:42;;;;;;;1.23;0.97;;;19.10;59.80;;;;;;5042443;28;20423;-52
2023/11/19 11:50:20;;;;;;;2.10;0.97;;;19.00;59.90;;;;;;5041506;28;20831;-50
2023/11/19 11:52:58;;;;;;;1.27;1.07;;;19.20;60.10;;;;;;5046183;28;20508;-52
2023/11/19 11:55:30;;;;;;;1.23;0.90;;;19.40;60.40;;;;;;5047297;28;20509;-51
2023/11/19 11:57:56;;;;;;;1.10;1.00;;;19.50;60.00;;;;;;5044008;28;20469;-53
2023/11/19 12:00:26;;;;;;;1.00;0.90;;;19.60;59.60;;;;;;5034075;28;21030;-50
2023/11/19 12:02:52;;;;;;;1.73;0.80;;;19.70;58.80;;;;;;5047188;28;20759;-50
2023/11/19 12:05:17;;;;;;;3.50;1.83;;;19.50;58.00;;;;;;5050533;28;20419;-50
2023/11/19 12:07:55;;;;;;;1.37;0.83;;;19.60;58.70;;;;;;5043311;28;20286;-53
2023/11/19 12:10:21;;;;;;;2.80;0.90;;;19.80;58.30;;;;;;5034530;28;20220;-53
2023/11/19 12:12:47;;;;;;;3.53;1.10;;;19.90;57.80;;;;;;5031224;28;20443;-51
2023/11/19 12:15:14;;;;;;;1.60;0.87;;;19.80;57.20;;;;;;5048532;28;21016;-50
2023/11/19 12:17:49;;;;;;;2.70;0.90;;;19.90;57.80;;;;;;5046068;28;20240;-52
2023/11/19 12:20:16;;;;;;;3.60;1.60;;;19.90;57.30;;;;;;5048383;28;20466;-50
2023/11/19 12:22:43;;;;;;;0.87;0.87;;;20.10;57.60;;;;;;5039684;28;20451;-49
2023/11/19 12:25:10;;;;;;;0.90;0.73;;;20.00;56.80;;;;;;5045760;28;20860;-53
2023/11/19 12:27:49;;;;;;;0.90;0.60;;;20.20;56.80;;;;;;5041793;28;20970;-52
2023/11/19 12:30:23;;;;;;;2.10;0.90;;;20.30;57.20;;;;;;5045015;28;20468;-52
2023/11/19 12:32:49;;;;;;;1.20;0.80;;;20.10;56.00;;;;;;5036837;28;21089;-49
2023/11/19 12:35:15;;;;;;;3.73;1.10;;;20.00;56.00;;;;;;5044039;28;20442;-51
2023/11/19 12:37:41;;;;;;;0.90;0.77;;;19.90;56.90;;;;;;5048253;28;20216;-49
2023/11/19 12:40:19;;;;;;;1.40;1.00;;;20.10;56.30;;;;;;5049777;28;20219;-51
2023/11/19 12:42:46;;;;;;;1.90;1.00;;;20.20;57.00;;;;;;5039483;28;20454;-55
2023/11/19 12:45:12;;;;;;;2.03;0.90;;;19.70;55.90;;;;;;5041097;28;20443;-51
2023/11/19 12:47:41;;;;;;;1.33;0.83;;;19.60;56.40;;;;;;5042842;28;20910;-50
2023/11/19 12:50:10;;;;;;;3.17;1.10;;;19.60;56.00;;;;;;5038958;28;20469;-49